Time;durP1;ratioP1;P1;durP2;ratioP2;P2;SDS_P1;SDS_P2;PMS_P1;PMS_P2;Temp;Humidity;BMP_temperature;BMP_pressure;BME280_temperature;BME280_humidity;BME280_pressure;Samples;Min_cycle;Max_cycle;Signal;HPM_P1;HPM_P2
2022/09/14 00:01:31;;;;;;;6.55;5.15;;;23.40;58.70;;;;;;5092952;28;20032;-78
2022/09/14 00:04:03;;;;;;;7.35;5.53;;;23.50;58.80;;;;;;5092264;28;20398;-78
2022/09/14 00:06:30;;;;;;;7.28;5.65;;;23.50;58.50;;;;;;5090671;28;20055;-76
2022/09/14 00:08:57;;;;;;;9.38;5.85;;;23.60;58.30;;;;;;5078745;28;20141;-76
2022/09/14 00:11:25;;;;;;;9.13;6.13;;;23.60;58.00;;;;;;5092499;28;20028;-77
2022/09/14 00:13:51;;;;;;;7.55;5.07;;;23.50;58.20;;;;;;5091490;28;20142;-77
2022/09/14 00:16:45;;;;;;;8.00;6.10;;;23.50;58.20;;;;;;5090302;28;20035;-76
2022/09/14 00:19:25;;;;;;;8.40;6.40;;;23.40;58.20;;;;;;5087946;28;20040;-78
2022/09/14 00:21:57;;;;;;;12.10;5.78;;;23.20;58.40;;;;;;5092686;28;20086;-79
2022/09/14 00:24:24;;;;;;;9.65;5.95;;;23.00;58.80;;;;;;5091862;28;20029;-79
2022/09/14 00:26:50;;;;;;;6.60;5.53;;;23.00;59.20;;;;;;5091052;28;20026;-78
2022/09/14 00:29:16;;;;;;;8.30;6.28;;;22.90;59.10;;;;;;5092031;28;20548;-77
2022/09/14 00:31:42;;;;;;;9.25;6.32;;;22.90;59.10;;;;;;5091597;28;20024;-78
2022/09/14 00:34:11;;;;;;;9.77;5.97;;;22.80;59.10;;;;;;5078858;28;20036;-78
2022/09/14 00:36:43;;;;;;;9.40;6.38;;;22.70;59.40;;;;;;5072426;28;20569;-78
2022/09/14 00:39:10;;;;;;;7.85;6.47;;;22.70;59.70;;;;;;5059695;28;20032;-78
2022/09/14 00:41:38;;;;;;;7.95;6.00;;;22.70;59.70;;;;;;5091548;28;20399;-78
2022/09/14 00:44:09;;;;;;;8.85;6.07;;;22.50;60.80;;;;;;5091767;28;20026;-78
2022/09/14 00:46:41;;;;;;;8.13;5.50;;;22.20;61.40;;;;;;5092160;28;20020;-79
2022/09/14 00:49:21;;;;;;;9.10;5.72;;;21.90;62.40;;;;;;5076766;28;20028;-78
2022/09/14 00:52:10;;;;;;;7.88;6.28;;;21.80;63.10;;;;;;5074924;28;20020;-77
2022/09/14 00:54:42;;;;;;;12.18;6.80;;;22.00;62.00;;;;;;5074371;28;20032;-78
2022/09/14 00:57:08;;;;;;;9.13;5.78;;;22.30;60.60;;;;;;5096156;28;20351;-77
2022/09/14 00:59:37;;;;;;;10.07;5.50;;;22.50;60.50;;;;;;5095277;28;20089;-78
2022/09/14 01:02:05;;;;;;;9.25;6.13;;;22.20;61.30;;;;;;5091923;28;20035;-78
2022/09/14 01:04:31;;;;;;;8.45;6.55;;;21.90;62.90;;;;;;5077692;28;20044;-78
2022/09/14 01:07:00;;;;;;;11.55;6.93;;;22.10;61.30;;;;;;5086017;28;20474;-77
2022/09/14 01:09:37;;;;;;;8.40;6.00;;;22.20;60.30;;;;;;5084538;28;20433;-78
2022/09/14 01:12:35;;;;;;;11.90;6.15;;;22.30;60.20;;;;;;5081307;28;20033;-77
2022/09/14 01:15:11;;;;;;;9.10;6.55;;;22.40;59.90;;;;;;5073076;28;20082;-78
2022/09/14 01:18:02;;;;;;;8.63;6.78;;;22.50;59.90;;;;;;5095783;28;20043;-78
2022/09/14 01:20:34;;;;;;;7.82;6.03;;;22.60;59.60;;;;;;5075806;28;20060;-78
2022/09/14 01:23:06;;;;;;;8.55;6.55;;;22.60;59.40;;;;;;5093422;28;20129;-79
2022/09/14 01:25:59;;;;;;;10.95;6.30;;;22.40;59.30;;;;;;5059239;28;20514;-80
2022/09/14 01:28:37;;;;;;;8.05;6.45;;;22.30;59.60;;;;;;5076541;28;20023;-79
2022/09/14 01:31:10;;;;;;;8.48;6.65;;;22.10;60.30;;;;;;5095266;28;20504;-79
2022/09/14 01:33:46;;;;;;;10.32;6.60;;;22.00;60.10;;;;;;5091192;28;20475;-79
2022/09/14 01:36:14;;;;;;;10.15;7.07;;;22.10;60.30;;;;;;5077224;28;20036;-79
2022/09/14 01:38:45;;;;;;;10.52;6.70;;;22.20;60.30;;;;;;5095454;28;20020;-78
2022/09/14 01:41:13;;;;;;;10.48;7.00;;;22.30;60.10;;;;;;5094768;28;20139;-80
2022/09/14 01:43:49;;;;;;;10.27;6.90;;;22.50;60.00;;;;;;5076166;28;20024;-79
2022/09/14 01:46:24;;;;;;;9.27;6.40;;;22.50;59.70;;;;;;5072891;28;20508;-80
2022/09/14 01:48:58;;;;;;;9.40;6.90;;;22.50;59.60;;;;;;5095404;28;20016;-79
2022/09/14 01:52:07;;;;;;;10.30;7.00;;;22.50;59.50;;;;;;5077249;28;20427;-79
2022/09/14 01:54:41;;;;;;;11.10;7.90;;;22.50;59.50;;;;;;4996712;28;20034;-78
2022/09/14 01:57:12;;;;;;;8.13;6.68;;;22.40;59.40;;;;;;4996341;28;20034;-79
2022/09/14 01:59:43;;;;;;;11.25;7.25;;;22.30;59.50;;;;;;4996486;28;20108;-78
2022/09/14 02:02:16;;;;;;;8.38;6.47;;;22.20;59.70;;;;;;5011819;28;20572;-78
2022/09/14 02:04:56;;;;;;;10.57;7.20;;;22.20;59.40;;;;;;4995619;28;20057;-78
2022/09/14 02:07:22;;;;;;;9.30;7.50;;;22.10;59.60;;;;;;5012420;28;20037;-77
2022/09/14 02:09:50;;;;;;;8.48;6.65;;;22.00;60.00;;;;;;5011536;28;20392;-79
2022/09/14 02:12:16;;;;;;;8.77;6.97;;;22.00;60.00;;;;;;5012427;28;20014;-79
2022/09/14 02:14:44;;;;;;;10.20;6.68;;;21.90;60.10;;;;;;5011990;28;20433;-78
2022/09/14 02:17:09;;;;;;;11.73;7.45;;;21.90;60.30;;;;;;5012702;28;20065;-78
2022/09/14 02:19:43;;;;;;;10.40;7.70;;;22.00;60.10;;;;;;4998675;28;20053;-80
2022/09/14 02:22:09;;;;;;;9.65;7.95;;;22.20;59.90;;;;;;4994358;28;20038;-79
2022/09/14 02:24:35;;;;;;;8.25;6.68;;;22.30;59.80;;;;;;4997394;28;20037;-78
2022/09/14 02:27:01;;;;;;;10.70;7.28;;;22.30;59.30;;;;;;5011874;28;20450;-78
2022/09/14 02:29:27;;;;;;;9.32;6.50;;;22.20;59.40;;;;;;5087328;28;20126;-76
2022/09/14 02:32:11;;;;;;;7.38;6.43;;;22.00;59.60;;;;;;5093859;28;20039;-79
2022/09/14 02:34:51;;;;;;;8.80;6.95;;;21.80;60.00;;;;;;5074413;28;20134;-78
2022/09/14 02:37:24;;;;;;;9.00;7.07;;;21.70;60.20;;;;;;5093550;28;20024;-78
2022/09/14 02:40:06;;;;;;;9.38;6.50;;;21.80;60.20;;;;;;5094603;28;20020;-79
2022/09/14 02:42:38;;;;;;;9.68;6.68;;;21.70;60.30;;;;;;5084106;28;20067;-79
2022/09/14 02:45:12;;;;;;;8.38;6.03;;;21.80;60.30;;;;;;5087261;28;20028;-77
2022/09/14 02:47:49;;;;;;;9.68;6.97;;;21.80;60.20;;;;;;5074878;28;20032;-77
2022/09/14 02:50:44;;;;;;;8.73;6.90;;;22.00;60.10;;;;;;5094533;28;20012;-77
2022/09/14 02:53:36;;;;;;;9.07;7.10;;;22.10;59.80;;;;;;5075102;28;20081;-77
2022/09/14 02:56:06;;;;;;;9.65;7.25;;;22.10;59.80;;;;;;5093031;28;20075;-77
2022/09/14 02:58:35;;;;;;;10.93;6.32;;;22.20;59.90;;;;;;5092607;28;20049;-77
2022/09/14 03:01:00;;;;;;;8.40;6.40;;;22.10;60.20;;;;;;5093012;28;20104;-79
2022/09/14 03:03:26;;;;;;;8.70;6.22;;;22.10;60.10;;;;;;5087410;28;20111;-78
2022/09/14 03:05:54;;;;;;;9.00;6.88;;;22.00;60.00;;;;;;5074614;28;20032;-78
2022/09/14 03:08:20;;;;;;;9.45;7.50;;;21.90;60.50;;;;;;5090958;28;20050;-79
2022/09/14 03:10:45;;;;;;;8.38;6.00;;;21.90;60.40;;;;;;5064840;28;20123;-78
2022/09/14 03:13:11;;;;;;;9.75;6.85;;;22.00;60.60;;;;;;5069095;28;20024;-79
2022/09/14 03:15:37;;;;;;;9.00;6.93;;;22.00;60.60;;;;;;5074817;28;20024;-78
2022/09/14 03:18:04;;;;;;;10.88;6.95;;;22.10;60.80;;;;;;5090280;28;20077;-78
2022/09/14 03:20:32;;;;;;;9.35;7.20;;;22.20;60.50;;;;;;5074573;28;20020;-75
2022/09/14 03:22:59;;;;;;;9.57;7.20;;;22.30;60.70;;;;;;5074590;28;20051;-78
2022/09/14 03:25:26;;;;;;;9.10;7.05;;;22.30;60.90;;;;;;5075523;28;20417;-79
2022/09/14 03:27:55;;;;;;;11.40;7.40;;;22.40;60.70;;;;;;5058063;28;20044;-77
2022/09/14 03:30:21;;;;;;;9.68;7.03;;;22.50;60.50;;;;;;5092582;28;20016;-76
2022/09/14 03:32:47;;;;;;;9.48;6.68;;;22.60;60.20;;;;;;5089169;28;20028;-79
2022/09/14 03:35:14;;;;;;;9.70;7.25;;;22.70;60.00;;;;;;5066141;28;20028;-80
2022/09/14 03:37:42;;;;;;;13.60;7.40;;;22.70;60.00;;;;;;5093522;28;20042;-79
2022/09/14 03:40:09;;;;;;;10.18;7.60;;;22.70;60.00;;;;;;5071791;28;20030;-77
2022/09/14 03:42:34;;;;;;;10.57;7.05;;;22.70;60.30;;;;;;5093201;28;20016;-79
2022/09/14 03:45:00;;;;;;;8.80;7.45;;;22.60;60.50;;;;;;5079880;28;20028;-75
2022/09/14 03:47:26;;;;;;;10.73;7.18;;;22.60;60.50;;;;;;5092868;28;20106;-77
2022/09/14 03:49:52;;;;;;;11.25;7.18;;;22.60;60.60;;;;;;5085048;28;20138;-79
2022/09/14 03:52:18;;;;;;;8.98;6.88;;;22.60;60.40;;;;;;5072848;28;20117;-79
2022/09/14 03:54:44;;;;;;;11.07;7.53;;;22.70;60.40;;;;;;5073217;28;20475;-77
2022/09/14 03:57:10;;;;;;;12.73;6.88;;;22.70;60.20;;;;;;5093091;28;20440;-77
2022/09/14 03:59:36;;;;;;;13.82;6.97;;;22.70;60.40;;;;;;5092942;28;20024;-79
2022/09/14 04:02:02;;;;;;;11.15;7.60;;;22.80;60.10;;;;;;5074872;28;20517;-79
2022/09/14 04:04:28;;;;;;;9.80;6.32;;;22.90;59.90;;;;;;5092187;28;20040;-77
2022/09/14 04:06:54;;;;;;;10.93;7.10;;;22.90;59.60;;;;;;5092987;28;20035;-77
2022/09/14 04:09:20;;;;;;;9.85;7.72;;;22.80;59.60;;;;;;5091761;28;20027;-76
2022/09/14 04:11:46;;;;;;;10.00;7.80;;;22.80;59.50;;;;;;5074841;28;20016;-77
2022/09/14 04:14:12;;;;;;;9.32;7.10;;;22.70;59.60;;;;;;5064760;28;20029;-79
2022/09/14 04:16:39;;;;;;;11.20;7.57;;;22.80;59.70;;;;;;5054856;28;20086;-78
2022/09/14 04:19:05;;;;;;;10.23;7.47;;;22.80;59.50;;;;;;5070576;28;20032;-78
2022/09/14 04:21:32;;;;;;;9.05;7.22;;;22.80;59.50;;;;;;5090978;28;20028;-78
2022/09/14 04:23:57;;;;;;;13.00;7.43;;;22.80;59.40;;;;;;5092157;28;20104;-77
2022/09/14 04:26:26;;;;;;;12.38;7.28;;;22.80;60.00;;;;;;5093400;28;20413;-78
2022/09/14 04:28:51;;;;;;;8.90;7.05;;;22.80;59.20;;;;;;5095785;28;20020;-77
2022/09/14 04:31:18;;;;;;;9.35;7.10;;;22.80;59.60;;;;;;5095519;28;20073;-77
2022/09/14 04:33:44;;;;;;;11.82;7.03;;;22.70;59.70;;;;;;5095209;28;20069;-78
2022/09/14 04:36:16;;;;;;;11.23;7.30;;;22.60;59.80;;;;;;5077409;28;20043;-78
2022/09/14 04:38:43;;;;;;;10.20;6.88;;;22.70;60.00;;;;;;5092446;28;20032;-75
2022/09/14 04:41:11;;;;;;;7.68;6.47;;;22.70;59.70;;;;;;5096018;28;20085;-76
2022/09/14 04:43:37;;;;;;;8.63;6.38;;;22.70;59.70;;;;;;5094618;28;20028;-76
2022/09/14 04:46:09;;;;;;;9.50;7.18;;;22.70;59.60;;;;;;5095371;28;20077;-77
2022/09/14 04:48:35;;;;;;;9.00;6.60;;;22.80;59.50;;;;;;5095823;28;20058;-79
2022/09/14 04:51:03;;;;;;;11.32;6.63;;;22.60;59.90;;;;;;5074326;28;20039;-78
2022/09/14 04:53:29;;;;;;;8.77;6.68;;;22.70;59.70;;;;;;5077260;28;20566;-77
2022/09/14 04:55:59;;;;;;;9.60;6.75;;;22.70;59.80;;;;;;5073333;28;20138;-75
2022/09/14 04:58:27;;;;;;;10.50;6.22;;;22.80;59.80;;;;;;5088831;28;20016;-77
2022/09/14 05:00:54;;;;;;;10.10;7.00;;;23.00;59.50;;;;;;5094894;28;20478;-76
2022/09/14 05:03:20;;;;;;;12.88;6.20;;;23.00;59.30;;;;;;5087017;28;20077;-77
2022/09/14 05:05:46;;;;;;;15.30;6.85;;;23.00;59.20;;;;;;5068328;28;20028;-77
2022/09/14 05:08:12;;;;;;;8.48;6.03;;;22.90;59.40;;;;;;5086447;28;20027;-79
2022/09/14 05:10:37;;;;;;;10.60;5.68;;;23.00;59.20;;;;;;5084695;28;20032;-78
2022/09/14 05:13:03;;;;;;;9.43;6.13;;;23.00;59.20;;;;;;5087374;28;20429;-78
2022/09/14 05:15:29;;;;;;;10.25;6.38;;;23.10;59.00;;;;;;5083239;28;20047;-77
2022/09/14 05:17:54;;;;;;;8.63;5.97;;;23.20;58.60;;;;;;5076855;28;20016;-77
2022/09/14 05:20:20;;;;;;;9.00;6.57;;;23.30;58.50;;;;;;5081677;28;20101;-79
2022/09/14 05:22:49;;;;;;;7.93;6.43;;;23.20;59.00;;;;;;5081289;28;20115;-79
2022/09/14 05:25:15;;;;;;;8.57;6.05;;;23.40;59.00;;;;;;5083708;28;20039;-78
2022/09/14 05:27:41;;;;;;;11.32;6.00;;;23.50;58.60;;;;;;4727760;28;10000870;-79
2022/09/14 05:30:07;;;;;;;8.52;6.00;;;23.40;58.70;;;;;;5061683;28;20134;-78
2022/09/14 05:32:33;;;;;;;8.73;6.00;;;23.50;59.10;;;;;;5066485;28;20056;-78
2022/09/14 05:34:59;;;;;;;12.15;6.20;;;23.60;58.40;;;;;;5067415;28;20485;-79
2022/09/14 05:37:24;;;;;;;7.60;5.70;;;23.70;58.50;;;;;;5081597;28;20028;-78
2022/09/14 05:39:50;;;;;;;9.77;6.05;;;23.90;58.50;;;;;;5090677;28;20115;-78
2022/09/14 05:42:16;;;;;;;11.48;5.90;;;24.00;58.10;;;;;;5077850;28;20020;-78
2022/09/14 05:44:41;;;;;;;12.52;5.88;;;23.90;58.20;;;;;;5067731;28;20024;-79
2022/09/14 05:47:07;;;;;;;9.80;5.80;;;23.80;58.20;;;;;;5074883;28;20029;-78
2022/09/14 05:49:33;;;;;;;11.80;6.22;;;23.80;58.40;;;;;;5075468;28;20463;-77
2022/09/14 05:51:58;;;;;;;11.85;6.15;;;23.70;58.60;;;;;;5078438;28;20467;-78
2022/09/14 05:54:24;;;;;;;10.65;6.28;;;23.70;58.50;;;;;;5078682;28;20066;-76
2022/09/14 05:56:50;;;;;;;12.93;6.00;;;23.90;58.90;;;;;;5092691;28;20083;-82
2022/09/14 05:59:15;;;;;;;10.30;6.30;;;24.00;58.30;;;;;;4740713;28;9999899;-78
2022/09/14 06:01:41;;;;;;;8.77;6.07;;;24.10;58.20;;;;;;5066500;28;20036;-78
2022/09/14 06:04:10;;;;;;;11.13;5.68;;;24.20;57.90;;;;;;5060661;28;20044;-79
2022/09/14 06:06:35;;;;;;;11.15;6.00;;;24.30;57.90;;;;;;5081703;28;20025;-77
2022/09/14 06:09:02;;;;;;;9.60;5.85;;;24.30;58.30;;;;;;5065010;28;20044;-76
2022/09/14 06:11:32;;;;;;;9.95;5.78;;;24.30;58.20;;;;;;5055784;28;20024;-80
2022/09/14 06:13:59;;;;;;;11.88;6.25;;;24.40;57.80;;;;;;5065211;28;20502;-79
2022/09/14 06:16:27;;;;;;;13.00;6.05;;;24.40;57.80;;;;;;5053279;28;20438;-78
2022/09/14 06:18:55;;;;;;;9.23;5.63;;;24.40;57.70;;;;;;5074590;28;20414;-77
2022/09/14 06:21:21;;;;;;;11.30;5.82;;;24.40;57.50;;;;;;5079837;28;20028;-77
2022/09/14 06:23:48;;;;;;;12.02;6.10;;;24.50;57.50;;;;;;4726682;28;10000581;-76
2022/09/14 06:26:15;;;;;;;11.40;5.32;;;24.40;57.60;;;;;;5073445;28;20024;-79
2022/09/14 06:28:41;;;;;;;9.38;5.63;;;24.40;57.50;;;;;;5077817;28;20032;-78
2022/09/14 06:31:10;;;;;;;10.25;5.60;;;24.50;57.50;;;;;;5059813;28;20034;-78
2022/09/14 06:33:36;;;;;;;11.65;5.28;;;24.50;57.40;;;;;;5063089;28;20024;-75
2022/09/14 06:36:08;;;;;;;7.72;5.38;;;24.60;57.30;;;;;;5056975;28;20479;-78
2022/09/14 06:38:34;;;;;;;9.20;5.32;;;24.60;57.60;;;;;;5067087;28;20031;-76
2022/09/14 06:41:03;;;;;;;8.45;5.32;;;24.60;57.30;;;;;;5081565;28;20043;-78
2022/09/14 06:43:32;;;;;;;12.75;5.25;;;24.60;57.10;;;;;;5076666;28;20016;-79
2022/09/14 06:46:03;;;;;;;7.90;5.28;;;24.60;56.90;;;;;;5080482;28;20048;-78
2022/09/14 06:48:33;;;;;;;11.40;5.60;;;24.70;57.20;;;;;;5079277;28;20029;-78
2022/09/14 06:51:00;;;;;;;8.48;5.60;;;24.70;57.20;;;;;;5083285;28;20062;-77
2022/09/14 06:53:26;;;;;;;9.85;5.28;;;24.80;57.30;;;;;;5069289;28;20089;-78
2022/09/14 06:55:52;;;;;;;10.07;6.30;;;24.90;57.10;;;;;;5078477;28;20033;-78
2022/09/14 06:58:18;;;;;;;10.60;6.22;;;25.10;57.10;;;;;;5067218;28;20077;-79
2022/09/14 07:00:44;;;;;;;11.13;5.55;;;25.20;57.20;;;;;;5080370;28;20056;-78
2022/09/14 07:03:09;;;;;;;9.43;5.57;;;25.30;57.10;;;;;;5086366;28;20516;-80
2022/09/14 07:05:35;;;;;;;9.07;6.07;;;25.20;57.00;;;;;;5083385;28;20051;-79
2022/09/14 07:08:01;;;;;;;11.20;7.03;;;25.40;57.30;;;;;;5075744;28;20025;-82
2022/09/14 07:10:27;;;;;;;10.57;6.43;;;25.20;56.20;;;;;;5091045;28;20028;-80
2022/09/14 07:12:54;;;;;;;9.60;7.20;;;25.10;57.60;;;;;;5074529;28;20056;-82
2022/09/14 07:15:20;;;;;;;8.88;5.82;;;25.30;57.20;;;;;;5085133;28;20030;-84
2022/09/14 07:17:46;;;;;;;10.40;6.00;;;25.30;57.20;;;;;;5073159;28;20119;-79
2022/09/14 07:20:14;;;;;;;10.13;6.53;;;25.20;56.50;;;;;;5078267;28;20028;-80
2022/09/14 07:22:43;;;;;;;9.93;6.30;;;25.10;56.80;;;;;;5060358;28;20112;-78
2022/09/14 07:25:09;;;;;;;11.83;6.57;;;25.10;56.40;;;;;;5073074;28;20017;-79
2022/09/14 07:27:37;;;;;;;10.73;6.43;;;25.10;56.70;;;;;;5081653;28;20024;-81
2022/09/14 07:30:05;;;;;;;10.93;6.03;;;25.10;56.80;;;;;;5085865;28;20406;-78
2022/09/14 07:32:31;;;;;;;10.50;6.80;;;25.20;56.50;;;;;;5084981;28;20064;-77
2022/09/14 07:34:56;;;;;;;7.93;6.18;;;25.20;56.60;;;;;;5060790;28;20055;-77
2022/09/14 07:37:22;;;;;;;9.93;5.78;;;25.20;56.30;;;;;;5079154;28;20082;-77
2022/09/14 07:39:47;;;;;;;9.43;5.97;;;25.10;56.40;;;;;;5089590;28;20024;-80
2022/09/14 07:42:13;;;;;;;10.10;5.50;;;25.10;57.10;;;;;;5068173;28;20387;-78
2022/09/14 07:44:39;;;;;;;9.05;5.40;;;25.00;56.60;;;;;;5093307;28;20024;-89
2022/09/14 07:47:04;;;;;;;9.15;5.35;;;23.90;58.60;;;;;;5093134;28;20019;-82
2022/09/14 07:49:30;;;;;;;7.93;5.25;;;23.20;59.90;;;;;;5069357;28;20446;-80
2022/09/14 07:51:56;;;;;;;7.10;5.15;;;22.90;60.80;;;;;;5077754;28;20032;-80
2022/09/14 07:54:22;;;;;;;12.18;5.47;;;23.10;61.50;;;;;;5075604;28;20039;-78
2022/09/14 07:56:49;;;;;;;8.95;5.57;;;23.60;60.20;;;;;;5072817;28;20037;-79
2022/09/14 07:59:15;;;;;;;9.98;5.47;;;23.90;59.90;;;;;;5072721;28;20379;-79
2022/09/14 08:01:40;;;;;;;10.13;5.38;;;24.30;59.20;;;;;;5088694;28;20113;-81
2022/09/14 08:04:08;;;;;;;7.32;5.35;;;24.10;59.20;;;;;;5076647;28;20035;-78
2022/09/14 08:06:36;;;;;;;6.70;5.13;;;23.80;60.00;;;;;;5093614;28;20030;-82
2022/09/14 08:09:05;;;;;;;12.63;5.90;;;23.80;58.70;;;;;;5066221;28;20028;-83
2022/09/14 08:11:33;;;;;;;8.88;5.32;;;23.60;58.70;;;;;;5076738;28;20025;-79
2022/09/14 08:14:05;;;;;;;9.20;5.47;;;23.50;58.90;;;;;;5076978;28;20017;-80
2022/09/14 08:16:33;;;;;;;8.07;5.47;;;23.50;59.50;;;;;;5058317;28;20028;-87
2022/09/14 08:19:01;;;;;;;10.00;5.60;;;23.20;59.40;;;;;;5058889;28;20490;-83
2022/09/14 08:21:39;;;;;;;7.65;5.38;;;22.70;61.00;;;;;;4794611;28;10000510;-79
2022/09/14 08:24:05;;;;;;;11.55;5.82;;;22.30;62.10;;;;;;4723510;28;10000506;-80
2022/09/14 08:26:32;;;;;;;9.20;5.53;;;22.40;62.50;;;;;;5077657;28;20046;-81
2022/09/14 08:28:59;;;;;;;9.15;5.60;;;22.90;61.70;;;;;;5078318;28;20031;-77
2022/09/14 08:31:26;;;;;;;10.20;5.53;;;22.80;61.60;;;;;;5096919;28;20025;-79
2022/09/14 08:33:57;;;;;;;14.32;5.97;;;23.10;61.30;;;;;;5078877;28;20028;-83
2022/09/14 08:36:26;;;;;;;12.90;6.38;;;23.30;62.10;;;;;;5096321;28;20068;-82
2022/09/14 08:38:51;;;;;;;10.13;6.40;;;23.90;60.60;;;;;;5096609;28;20035;-77
2022/09/14 08:41:17;;;;;;;11.60;5.90;;;24.30;59.50;;;;;;5096489;28;20039;-81
2022/09/14 08:43:43;;;;;;;8.93;5.75;;;24.60;59.10;;;;;;5096251;28;20039;-81
2022/09/14 08:46:21;;;;;;;9.90;6.13;;;23.90;60.10;;;;;;5096167;28;20405;-79
2022/09/14 08:48:48;;;;;;;8.48;5.78;;;23.90;60.20;;;;;;5078222;28;20051;-83
2022/09/14 08:51:16;;;;;;;9.93;6.18;;;23.80;60.00;;;;;;5096287;28;20028;-78
2022/09/14 08:53:42;;;;;;;14.27;5.80;;;23.80;59.70;;;;;;5078243;28;20475;-80
2022/09/14 08:56:20;;;;;;;8.63;5.78;;;23.60;60.00;;;;;;5096192;28;20119;-77
2022/09/14 08:58:53;;;;;;;9.68;5.82;;;23.20;60.40;;;;;;5095882;28;20120;-80
2022/09/14 09:01:46;;;;;;;7.95;5.40;;;23.30;61.90;;;;;;5096237;28;20031;-76
2022/09/14 09:04:36;;;;;;;12.85;5.88;;;23.40;60.80;;;;;;5095986;28;20040;-78
2022/09/14 09:07:12;;;;;;;;;;;23.30;60.80;;;;;;5078630;28;20028;-82
2022/09/14 09:09:45;;;;;;;10.02;5.57;;;23.10;62.50;;;;;;5078275;28;19908;-86
2022/09/14 09:12:16;;;;;;;10.63;6.68;;;23.50;63.00;;;;;;5095896;28;20017;-83
2022/09/14 09:14:59;;;;;;;10.52;6.50;;;24.20;62.30;;;;;;5096051;28;20081;-82
2022/09/14 09:17:40;;;;;;;12.10;6.40;;;24.70;59.50;;;;;;5096057;28;20028;-82
2022/09/14 09:20:19;;;;;;;10.38;6.13;;;24.70;59.80;;;;;;5096237;28;20027;-79
2022/09/14 09:22:53;;;;;;;8.10;5.90;;;24.90;58.80;;;;;;5077646;28;20062;-82
2022/09/14 09:25:29;;;;;;;12.40;6.45;;;24.80;58.70;;;;;;5077908;28;20020;-87
2022/09/14 09:28:00;;;;;;;12.00;6.53;;;24.80;59.50;;;;;;5077736;28;20024;-80
2022/09/14 09:30:28;;;;;;;12.00;6.93;;;24.40;60.70;;;;;;5095515;28;20092;-78
2022/09/14 09:32:54;;;;;;;15.48;7.47;;;24.10;61.50;;;;;;5078095;28;20035;-80
2022/09/14 09:35:22;;;;;;;12.02;7.47;;;24.10;62.70;;;;;;5095248;28;20407;-80
2022/09/14 09:37:48;;;;;;;11.10;7.15;;;24.40;62.60;;;;;;5077164;28;20036;-78
2022/09/14 09:40:30;;;;;;;10.38;6.60;;;24.90;62.10;;;;;;5077243;28;20086;-79
2022/09/14 09:43:14;;;;;;;11.80;7.10;;;25.10;62.00;;;;;;5095423;28;20028;-80
2022/09/14 09:46:00;;;;;;;9.35;6.85;;;24.90;62.50;;;;;;5095233;28;20012;-81
2022/09/14 09:48:40;;;;;;;10.90;7.03;;;24.80;62.40;;;;;;5095294;28;20024;-81
2022/09/14 09:51:10;;;;;;;10.37;6.53;;;24.50;62.50;;;;;;5095236;28;20073;-80
2022/09/14 09:53:48;;;;;;;8.90;6.28;;;24.50;62.50;;;;;;5077290;28;20069;-82
2022/09/14 09:56:27;;;;;;;8.65;6.63;;;24.80;61.40;;;;;;5095371;28;20036;-82
2022/09/14 09:58:53;;;;;;;8.30;6.10;;;25.20;61.80;;;;;;5095439;28;20103;-80
2022/09/14 10:01:32;;;;;;;12.52;6.75;;;25.50;60.00;;;;;;5077068;28;20032;-85
2022/09/14 10:04:18;;;;;;;11.32;6.43;;;25.00;59.80;;;;;;5077554;28;20074;-92
2022/09/14 10:06:50;;;;;;;12.20;6.65;;;25.30;60.90;;;;;;5077422;28;20414;-80
2022/09/14 10:09:19;;;;;;;10.07;6.85;;;26.10;59.60;;;;;;5077663;28;20027;-79
2022/09/14 10:12:06;;;;;;;10.45;6.88;;;26.50;57.20;;;;;;5077629;28;20489;-84
2022/09/14 10:14:34;;;;;;;9.07;6.40;;;26.40;58.30;;;;;;5079045;28;20035;-94
2022/09/14 10:17:16;;;;;;;8.88;5.93;;;26.00;58.30;;;;;;5082017;28;20031;-90
2022/09/14 10:19:51;;;;;;;10.05;6.60;;;26.20;58.90;;;;;;5097962;28;20658;-81
2022/09/14 10:22:36;;;;;;;10.95;6.93;;;26.20;58.60;;;;;;5078837;28;20036;-84
2022/09/14 10:25:14;;;;;;;7.82;5.65;;;26.00;59.20;;;;;;5078394;28;20020;-92
2022/09/14 10:27:54;;;;;;;10.55;6.25;;;25.90;59.40;;;;;;5095327;28;20024;-84
2022/09/14 10:30:39;;;;;;;9.32;6.15;;;25.80;58.90;;;;;;5076808;28;20031;-87
2022/09/14 10:33:09;;;;;;;8.02;5.72;;;25.70;59.50;;;;;;5076724;28;20424;-84
2022/09/14 10:35:58;;;;;;;14.57;6.70;;;25.80;59.90;;;;;;5094894;28;20035;-86
2022/09/14 10:38:39;;;;;;;7.97;5.80;;;25.60;59.30;;;;;;5076377;28;20028;-85
2022/09/14 10:41:05;;;;;;;10.77;6.50;;;25.10;61.00;;;;;;5076997;28;20114;-83
2022/09/14 10:44:01;;;;;;;12.07;6.85;;;25.50;60.80;;;;;;5094782;28;20099;-86
2022/09/14 10:46:40;;;;;;;11.70;6.95;;;25.90;59.60;;;;;;5095220;28;20039;-89
2022/09/14 10:49:36;;;;;;;10.40;6.68;;;26.50;58.70;;;;;;5076488;28;20020;-94
2022/09/14 10:52:14;;;;;;;13.05;6.22;;;26.80;58.40;;;;;;5076725;28;20020;-82
2022/09/14 10:54:51;;;;;;;10.10;6.10;;;26.40;58.90;;;;;;5094361;28;20024;-83
2022/09/14 10:57:35;;;;;;;9.15;6.13;;;26.00;59.20;;;;;;5075901;28;20040;-82
2022/09/14 11:00:11;;;;;;;9.27;5.88;;;26.10;59.60;;;;;;5076180;28;20382;-84
2022/09/14 11:03:05;;;;;;;8.95;5.88;;;25.90;59.10;;;;;;5076070;28;20032;-90
2022/09/14 11:05:43;;;;;;;10.35;6.72;;;25.80;59.60;;;;;;5093946;28;20123;-85
2022/09/14 11:08:08;;;;;;;11.50;6.40;;;25.60;59.40;;;;;;5075711;28;20031;-79
2022/09/14 11:10:49;;;;;;;11.82;6.10;;;25.30;59.70;;;;;;5075885;28;20031;-79
2022/09/14 11:13:24;;;;;;;8.68;6.07;;;25.10;60.30;;;;;;5093579;28;20069;-79
2022/09/14 11:16:01;;;;;;;10.32;6.35;;;24.70;61.20;;;;;;5075668;28;20067;-81
2022/09/14 11:18:30;;;;;;;10.82;6.03;;;24.90;61.70;;;;;;5093497;28;20482;-82
2022/09/14 11:21:21;;;;;;;9.65;6.53;;;25.10;62.40;;;;;;5093972;28;20031;-80
2022/09/14 11:23:50;;;;;;;9.48;6.30;;;25.50;61.40;;;;;;5075661;28;20030;-80
2022/09/14 11:26:31;;;;;;;9.35;6.00;;;25.80;60.20;;;;;;5075936;28;20520;-81
2022/09/14 11:29:23;;;;;;;9.63;6.35;;;26.10;60.50;;;;;;5093327;28;20032;-81
2022/09/14 11:31:54;;;;;;;8.98;5.65;;;26.10;60.10;;;;;;5092771;28;20115;-79
2022/09/14 11:34:34;;;;;;;11.13;6.22;;;25.80;60.50;;;;;;5075350;28;20052;-78
2022/09/14 11:37:08;;;;;;;7.80;5.43;;;26.10;60.40;;;;;;5074864;28;20495;-86
2022/09/14 11:39:50;;;;;;;8.63;6.40;;;26.40;59.80;;;;;;5075019;28;20025;-80
2022/09/14 11:42:21;;;;;;;7.55;5.60;;;26.40;59.50;;;;;;5093394;28;20058;-79
2022/09/14 11:44:53;;;;;;;7.80;5.80;;;26.60;59.20;;;;;;5093069;28;20020;-83
2022/09/14 11:47:20;;;;;;;9.75;5.85;;;26.60;58.80;;;;;;5092792;28;20028;-80
2022/09/14 11:50:22;;;;;;;11.43;6.30;;;26.10;60.00;;;;;;5093097;28;20031;-81
2022/09/14 11:53:00;;;;;;;13.73;6.10;;;26.10;60.20;;;;;;5093446;28;20024;-82
2022/09/14 11:55:26;;;;;;;7.38;5.43;;;26.50;59.90;;;;;;5093107;28;20075;-81
2022/09/14 11:57:52;;;;;;;11.13;6.40;;;26.50;59.10;;;;;;5093075;28;20106;-78
2022/09/14 12:00:23;;;;;;;8.10;5.90;;;26.80;58.90;;;;;;5075070;28;20028;-77
2022/09/14 12:03:04;;;;;;;8.52;6.07;;;26.70;59.00;;;;;;5093283;28;20036;-80
2022/09/14 12:05:31;;;;;;;9.43;5.68;;;26.40;59.90;;;;;;5092969;28;20078;-81
2022/09/14 12:08:03;;;;;;;10.80;5.22;;;26.70;60.00;;;;;;5092918;28;20101;-80
2022/09/14 12:10:29;;;;;;;10.30;5.65;;;26.90;59.80;;;;;;5092920;28;20470;-89
2022/09/14 12:13:18;;;;;;;9.95;6.05;;;26.90;59.50;;;;;;5074957;28;20024;-82
2022/09/14 12:15:45;;;;;;;10.40;5.40;;;26.60;60.00;;;;;;5092976;28;20032;-78
2022/09/14 12:18:12;;;;;;;8.57;5.88;;;26.80;60.70;;;;;;5092849;28;20050;-85
2022/09/14 12:20:41;;;;;;;8.13;5.53;;;27.40;59.50;;;;;;5092685;28;20016;-79
2022/09/14 12:23:25;;;;;;;8.97;5.80;;;27.90;59.20;;;;;;5092581;28;20399;-78
2022/09/14 12:26:05;;;;;;;10.50;5.30;;;28.50;59.00;;;;;;5092488;28;20101;-80
2022/09/14 12:28:39;;;;;;;11.23;5.95;;;28.70;57.90;;;;;;5092899;28;20030;-90
2022/09/14 12:31:04;;;;;;;9.77;6.45;;;28.80;57.90;;;;;;5092480;28;20390;-78
2022/09/14 12:33:33;;;;;;;9.43;6.47;;;29.20;57.30;;;;;;5092783;28;20032;-78
2022/09/14 12:36:01;;;;;;;8.48;5.88;;;29.20;56.90;;;;;;5092697;28;20032;-79
2022/09/14 12:38:30;;;;;;;10.52;6.40;;;29.20;57.20;;;;;;5074493;28;20024;-80
2022/09/14 12:41:22;;;;;;;10.60;6.50;;;28.50;57.90;;;;;;5092499;28;20056;-82
2022/09/14 12:43:53;;;;;;;12.98;6.70;;;28.70;57.90;;;;;;5074384;28;20133;-82
2022/09/14 12:46:18;;;;;;;8.82;5.95;;;28.40;57.30;;;;;;5075039;28;20016;-80
2022/09/14 12:48:47;;;;;;;11.88;7.55;;;28.10;58.40;;;;;;5078036;28;20093;-79
2022/09/14 12:51:34;;;;;;;9.10;6.13;;;28.30;58.80;;;;;;5077872;28;20020;-87
2022/09/14 12:54:06;;;;;;;9.85;6.25;;;28.70;58.50;;;;;;5078026;28;20020;-79
2022/09/14 12:56:46;;;;;;;8.05;6.38;;;29.00;57.80;;;;;;5096324;28;20036;-80
2022/09/14 12:59:12;;;;;;;10.70;6.13;;;29.30;57.10;;;;;;5077911;28;20066;-80
2022/09/14 13:01:52;;;;;;;10.90;6.57;;;29.50;57.20;;;;;;5096045;28;20441;-81
2022/09/14 13:04:27;;;;;;;10.27;6.65;;;29.00;57.00;;;;;;5077980;28;20505;-80